createdAt,value
2019-04-22T00:00:42.467Z,9.20
2019-04-22T00:03:14.624Z,9.10
2019-04-22T00:06:00.942Z,9.00
2019-04-22T00:08:38.969Z,9.00
2019-04-22T00:11:13.220Z,9.00
2019-04-22T00:13:43.887Z,9.00
2019-04-22T00:16:07.153Z,9.00
2019-04-22T00:18:59.112Z,9.00
2019-04-22T00:21:12.956Z,8.90
2019-04-22T00:23:39.131Z,8.90
2019-04-22T00:26:16.576Z,8.90
2019-04-22T00:28:43.805Z,8.80
2019-04-22T00:31:38.542Z,8.70
2019-04-22T00:34:06.749Z,8.60
2019-04-22T00:36:36.604Z,8.70
2019-04-22T00:39:08.865Z,8.70
2019-04-22T00:41:35.867Z,8.70
2019-04-22T00:44:12.045Z,8.70
2019-04-22T00:46:44.069Z,8.60
2019-04-22T00:49:52.899Z,8.60
2019-04-22T00:51:49.967Z,8.60
2019-04-22T00:54:11.910Z,8.60
2019-04-22T00:56:32.843Z,8.50
2019-04-22T00:59:06.793Z,8.50
2019-04-22T01:01:36.903Z,8.60
2019-04-22T01:04:14.327Z,8.60
2019-04-22T01:06:42.762Z,8.60
2019-04-22T01:09:10.511Z,8.50
2019-04-22T01:11:38.430Z,8.50
2019-04-22T01:14:09.298Z,8.50
2019-04-22T01:16:43.000Z,8.40
2019-04-22T01:19:16.658Z,8.40
2019-04-22T01:21:40.291Z,8.30
2019-04-22T01:24:12.266Z,8.20
2019-04-22T01:26:41.903Z,8.20
2019-04-22T01:29:05.369Z,8.20
2019-04-22T01:31:30.251Z,8.20
2019-04-22T01:34:10.008Z,8.20
2019-04-22T01:36:51.588Z,8.10
2019-04-22T01:39:21.286Z,8.10
2019-04-22T01:42:04.180Z,7.90
2019-04-22T01:44:31.342Z,8.00
2019-04-22T01:49:27.281Z,8.00
2019-04-22T01:51:59.838Z,8.00
2019-04-22T01:54:29.923Z,8.00
2019-04-22T01:56:55.301Z,8.10
2019-04-22T01:59:19.844Z,8.10
2019-04-22T02:01:57.438Z,8.00
2019-04-22T02:04:31.920Z,7.90
2019-04-22T02:06:57.535Z,7.90
2019-04-22T02:09:34.650Z,8.00
2019-04-22T02:12:00.232Z,8.10
2019-04-22T02:14:33.100Z,8.10
2019-04-22T02:17:02.344Z,8.00
2019-04-22T02:19:51.797Z,7.90
2019-04-22T02:22:04.563Z,7.80
2019-04-22T02:24:33.301Z,7.80
2019-04-22T02:27:01.624Z,7.60
2019-04-22T02:29:37.287Z,7.50
2019-04-22T02:32:12.217Z,7.60
2019-04-22T02:34:46.055Z,7.50
2019-04-22T02:39:57.629Z,7.40
2019-04-22T02:42:13.280Z,7.40
2019-04-22T02:44:37.697Z,7.50
2019-04-22T02:49:39.234Z,7.50
2019-04-22T02:52:20.502Z,7.60
2019-04-22T02:57:28.065Z,7.40
2019-04-22T02:59:39.704Z,7.40
2019-04-22T03:02:14.362Z,7.30
2019-04-22T03:05:00.612Z,7.30
2019-04-22T03:07:12.787Z,7.30
2019-04-22T03:09:41.069Z,7.30
2019-04-22T03:12:16.433Z,7.30
2019-04-22T03:14:56.321Z,7.20
2019-04-22T03:17:21.995Z,7.10
2019-04-22T03:22:16.574Z,7.10
2019-04-22T03:25:05.359Z,7.10
2019-04-22T03:27:16.974Z,7.00
2019-04-22T03:33:05.951Z,7.00
2019-04-22T03:40:22.754Z,6.80
2019-04-22T03:43:10.878Z,6.80
2019-04-22T03:55:23.128Z,6.70
2019-04-22T04:00:35.708Z,6.90
2019-04-22T04:02:53.881Z,6.90
2019-04-22T04:05:33.519Z,6.90
2019-04-22T04:10:35.393Z,6.80
2019-04-22T04:13:03.505Z,6.80
2019-04-22T04:17:55.277Z,6.70
2019-04-22T04:20:28.682Z,6.60
2019-04-22T04:23:08.370Z,6.80
2019-04-22T04:25:40.946Z,6.80
2019-04-22T04:28:24.335Z,6.80
2019-04-22T04:30:30.151Z,6.70
2019-04-22T04:37:58.907Z,6.60
2019-04-22T04:40:46.175Z,6.70
2019-04-22T04:45:39.873Z,6.90
2019-04-22T04:48:14.685Z,7.00
2019-04-22T04:50:32.101Z,7.10
2019-04-22T04:55:28.391Z,7.30
2019-04-22T05:03:17.377Z,7.40
2019-04-22T05:05:31.522Z,7.50
2019-04-22T05:20:53.189Z,8.20
2019-04-22T05:23:05.775Z,8.40
2019-04-22T05:25:33.825Z,8.50
2019-04-22T05:28:11.784Z,8.60
2019-04-22T05:30:39.539Z,8.80
2019-04-22T05:33:07.354Z,8.90
2019-04-22T05:35:41.337Z,9.10
2019-04-22T05:40:34.886Z,9.50
2019-04-22T05:43:16.242Z,9.60
2019-04-22T05:45:43.080Z,9.70
2019-04-22T05:48:18.953Z,9.80
2019-04-22T05:50:45.240Z,9.80
2019-04-22T05:53:13.210Z,10.00
2019-04-22T05:56:15.424Z,10.10
2019-04-22T05:58:22.955Z,10.20
2019-04-22T06:03:39.136Z,10.50
2019-04-22T06:06:13.729Z,10.70
2019-04-22T06:08:48.802Z,10.80
2019-04-22T06:11:22.296Z,11.00
2019-04-22T06:13:40.456Z,11.20
2019-04-22T06:16:21.753Z,11.30
2019-04-22T06:18:55.128Z,11.50
2019-04-22T06:21:40.170Z,11.50
2019-04-22T06:23:56.328Z,11.70
2019-04-22T06:26:30.955Z,11.80
2019-04-22T06:28:54.878Z,12.00
2019-04-22T06:31:28.167Z,12.20
2019-04-22T06:34:06.816Z,12.20
2019-04-22T06:36:30.940Z,12.40
2019-04-22T06:39:05.274Z,12.60
2019-04-22T06:41:31.558Z,12.60
2019-04-22T06:44:04.800Z,12.80
2019-04-22T06:46:36.720Z,12.90
2019-04-22T06:49:03.233Z,13.10
2019-04-22T06:51:35.619Z,13.10
2019-04-22T06:54:03.402Z,13.30
2019-04-22T06:56:41.310Z,13.30
2019-04-22T06:59:06.906Z,13.50
2019-04-22T07:02:00.437Z,13.60
2019-04-22T07:04:14.107Z,13.70
2019-04-22T07:06:41.652Z,13.90
2019-04-22T07:09:28.498Z,13.90
2019-04-22T07:11:36.680Z,14.00
2019-04-22T07:16:43.233Z,14.10
2019-04-22T07:19:13.587Z,14.10
2019-04-22T07:21:46.891Z,14.20
2019-04-22T07:24:28.255Z,14.20
2019-04-22T07:26:44.856Z,14.30
2019-04-22T07:29:16.227Z,14.50
2019-04-22T07:31:43.127Z,14.60
2019-04-22T07:34:19.661Z,14.60
2019-04-22T07:39:16.053Z,14.80
2019-04-22T07:41:46.054Z,14.90
2019-04-22T07:44:32.443Z,15.20
2019-04-22T07:46:49.945Z,15.30
2019-04-22T07:49:23.223Z,15.30
2019-04-22T07:51:46.684Z,15.40
2019-04-22T07:54:39.710Z,15.40
2019-04-22T07:56:53.932Z,15.60
2019-04-22T07:59:22.237Z,15.70
2019-04-22T08:01:50.470Z,15.90
2019-04-22T08:06:52.311Z,16.10
2019-04-22T08:14:22.472Z,16.80
2019-04-22T08:17:01.465Z,16.90
2019-04-22T08:19:28.126Z,17.10
2019-04-22T08:21:52.176Z,17.20
2019-04-22T08:24:22.658Z,17.40
2019-04-22T08:26:56.450Z,17.40
2019-04-22T08:29:32.781Z,17.40
2019-04-22T08:31:57.938Z,17.50
2019-04-22T08:34:25.950Z,17.60
2019-04-22T08:37:25.608Z,17.50
2019-04-22T08:39:25.316Z,17.60
2019-04-22T08:41:51.293Z,17.90
2019-04-22T08:44:49.387Z,18.10
2019-04-22T08:47:05.792Z,18.10
2019-04-22T08:49:32.204Z,18.20
2019-04-22T08:52:03.890Z,18.20
2019-04-22T08:54:31.181Z,18.30
2019-04-22T08:57:06.708Z,18.40
2019-04-22T08:59:28.358Z,18.50
2019-04-22T09:02:06.278Z,18.50
2019-04-22T09:04:30.886Z,18.70
2019-04-22T09:07:13.014Z,18.80
2019-04-22T09:09:31.469Z,18.80
2019-04-22T09:12:12.645Z,19.00
2019-04-22T09:14:40.602Z,19.00
2019-04-22T09:17:21.370Z,19.20
2019-04-22T09:19:36.473Z,19.20
2019-04-22T09:22:04.985Z,19.30
2019-04-22T09:24:35.609Z,19.50
2019-04-22T09:27:10.093Z,19.60
2019-04-22T09:29:39.513Z,19.80
2019-04-22T09:32:14.806Z,19.80
2019-04-22T09:34:41.700Z,20.00
2019-04-22T09:37:11.909Z,20.20
2019-04-22T09:39:41.382Z,20.20
2019-04-22T09:42:14.532Z,20.40
2019-04-22T09:44:41.720Z,20.40
2019-04-22T09:47:12.831Z,20.40
2019-04-22T09:52:11.602Z,20.40
2019-04-22T09:54:49.256Z,20.40
2019-04-22T09:57:20.398Z,20.60
2019-04-22T09:59:43.383Z,20.70
2019-04-22T10:04:46.890Z,21.10
2019-04-22T10:07:15.281Z,21.20
2019-04-22T10:10:07.447Z,21.20
2019-04-22T10:12:19.344Z,21.30
2019-04-22T10:14:45.687Z,21.50
2019-04-22T10:17:15.519Z,21.50
2019-04-22T10:19:47.992Z,21.60
2019-04-22T10:22:19.896Z,21.60
2019-04-22T10:24:44.698Z,21.70
2019-04-22T10:27:14.043Z,21.80
2019-04-22T10:29:54.263Z,21.90
2019-04-22T10:32:11.261Z,22.10
2019-04-22T10:34:34.676Z,22.10
2019-04-22T10:36:59.964Z,22.00
2019-04-22T10:39:36.783Z,22.20
2019-04-22T10:41:56.802Z,22.20
2019-04-22T10:44:27.041Z,22.30
2019-04-22T10:46:56.138Z,22.50
2019-04-22T10:49:26.444Z,22.60
2019-04-22T10:51:55.448Z,22.60
2019-04-22T10:54:25.379Z,22.50
2019-04-22T10:56:55.086Z,22.50
2019-04-22T10:59:24.671Z,22.70
2019-04-22T11:01:54.954Z,22.70
2019-04-22T11:04:23.901Z,22.60
2019-04-22T11:06:57.697Z,22.50
2019-04-22T11:09:23.889Z,22.60
2019-04-22T11:12:01.735Z,22.50
2019-04-22T11:14:24.062Z,22.60
2019-04-22T11:16:53.356Z,22.80
2019-04-22T11:19:23.464Z,23.00
2019-04-22T11:22:03.365Z,23.10
2019-04-22T11:24:23.081Z,23.20
2019-04-22T11:26:52.772Z,23.40
2019-04-22T11:29:23.642Z,23.40
2019-04-22T11:31:52.558Z,23.50
2019-04-22T11:34:21.443Z,23.40
2019-04-22T11:36:50.550Z,23.40
2019-04-22T11:39:19.801Z,23.40
2019-04-22T11:41:49.847Z,23.30
2019-04-22T11:44:19.210Z,23.40
2019-04-22T11:46:49.443Z,23.50
2019-04-22T11:49:18.465Z,23.50
2019-04-22T11:51:47.778Z,23.50
2019-04-22T11:54:17.036Z,23.50
2019-04-22T11:56:47.346Z,23.50
2019-04-22T11:59:16.468Z,23.50
2019-04-22T12:01:46.657Z,23.50
2019-04-22T12:04:16.052Z,23.50
2019-04-22T12:06:46.172Z,23.50
2019-04-22T12:09:17.392Z,23.40
2019-04-22T12:11:46.852Z,23.30
2019-04-22T12:14:15.969Z,23.10
2019-04-22T12:16:45.529Z,22.90
2019-04-22T12:19:15.661Z,22.90
2019-04-22T12:21:44.895Z,22.90
2019-04-22T12:24:15.053Z,22.90
2019-04-22T12:26:44.259Z,22.90
2019-04-22T12:29:13.299Z,23.10
2019-04-22T12:31:42.401Z,23.00
2019-04-22T12:34:11.335Z,23.00
2019-04-22T12:36:40.463Z,23.00
2019-04-22T12:39:09.817Z,22.80
2019-04-22T12:41:40.057Z,22.80
2019-04-22T12:44:09.363Z,22.80
2019-04-22T12:46:39.120Z,22.70
2019-04-22T12:49:08.035Z,22.80
2019-04-22T12:51:36.919Z,22.60
2019-04-22T12:54:06.888Z,22.50
2019-04-22T12:56:35.808Z,22.60
2019-04-22T12:59:05.662Z,22.60
2019-04-22T13:01:35.110Z,22.60
2019-04-22T13:04:09.349Z,22.80
2019-04-22T13:06:35.582Z,22.90
2019-04-22T13:09:06.612Z,23.10
2019-04-22T13:11:36.919Z,23.10
2019-04-22T13:14:07.176Z,23.20
2019-04-22T13:16:36.068Z,23.40
2019-04-22T13:19:11.130Z,23.40
2019-04-22T13:21:36.499Z,23.50
2019-04-22T13:24:06.952Z,23.50
2019-04-22T13:26:36.057Z,23.50
2019-04-22T13:29:05.266Z,23.50
2019-04-22T13:31:34.928Z,23.70
2019-04-22T13:34:04.202Z,23.70
2019-04-22T13:36:34.645Z,23.70
2019-04-22T13:39:05.037Z,23.60
2019-04-22T13:41:40.494Z,23.60
2019-04-22T13:44:04.990Z,23.60
2019-04-22T13:46:35.472Z,23.60
2019-04-22T13:49:31.520Z,23.60
2019-04-22T13:52:20.793Z,23.50
2019-04-22T13:56:55.117Z,23.30
2019-04-22T13:59:16.740Z,23.20
2019-04-22T14:01:38.638Z,23.30
2019-04-22T14:04:10.298Z,23.20
2019-04-22T14:06:40.446Z,23.10
2019-04-22T14:09:09.677Z,23.20
2019-04-22T14:11:48.778Z,23.00
2019-04-22T14:14:09.258Z,23.00
2019-04-22T14:16:38.093Z,23.00
2019-04-22T14:19:07.860Z,23.00
2019-04-22T14:21:36.849Z,23.00
2019-04-22T14:24:07.401Z,22.90
2019-04-22T14:26:52.415Z,22.90
2019-04-22T14:29:07.901Z,22.90
2019-04-22T14:31:38.235Z,22.80
2019-04-22T14:34:08.183Z,22.70
2019-04-22T14:36:37.460Z,22.70
2019-04-22T14:39:10.077Z,22.60
2019-04-22T14:41:55.425Z,22.50
2019-04-22T14:47:09.137Z,22.40
2019-04-22T14:49:36.882Z,22.40
2019-04-22T14:52:10.803Z,22.40
2019-04-22T14:54:28.476Z,22.30
2019-04-22T14:56:42.315Z,22.40
2019-04-22T14:59:13.392Z,22.30
2019-04-22T15:01:43.512Z,22.20
2019-04-22T15:04:13.314Z,22.20
2019-04-22T15:06:45.153Z,22.10
2019-04-22T15:09:14.365Z,22.20
2019-04-22T15:11:53.011Z,22.10
2019-04-22T15:14:15.090Z,22.10
2019-04-22T15:16:46.900Z,22.00
2019-04-22T15:19:17.904Z,22.00
2019-04-22T15:21:47.157Z,22.00
2019-04-22T15:24:26.864Z,22.00
2019-04-22T15:26:58.652Z,21.90
2019-04-22T15:29:29.368Z,21.90
2019-04-22T15:31:59.728Z,21.80
2019-04-22T15:34:30.382Z,21.90
2019-04-22T15:37:00.090Z,21.80
2019-04-22T15:39:29.315Z,21.80
2019-04-22T15:42:09.782Z,21.80
2019-04-22T15:44:30.246Z,21.80
2019-04-22T15:47:00.693Z,21.90
2019-04-22T15:49:29.846Z,21.90
2019-04-22T15:52:00.748Z,22.00
2019-04-22T15:54:29.815Z,22.20
2019-04-22T15:57:00.001Z,22.10
2019-04-22T15:59:45.013Z,22.00
2019-04-22T16:02:00.751Z,21.90
2019-04-22T16:04:30.840Z,21.80
2019-04-22T16:07:01.087Z,21.70
2019-04-22T16:09:31.245Z,21.60
2019-04-22T16:12:12.579Z,21.70
2019-04-22T16:14:37.179Z,21.60
2019-04-22T16:17:01.166Z,21.60
2019-04-22T16:19:30.943Z,21.50
2019-04-22T16:22:05.575Z,21.50
2019-04-22T16:24:36.085Z,21.50
2019-04-22T16:27:06.631Z,21.50
2019-04-22T16:29:35.357Z,21.40
2019-04-22T16:32:05.352Z,21.30
2019-04-22T16:34:36.042Z,21.30
2019-04-22T16:37:05.042Z,21.30
2019-04-22T16:39:34.014Z,21.30
2019-04-22T16:42:04.730Z,21.20
2019-04-22T16:44:34.488Z,21.00
2019-04-22T16:47:08.017Z,20.80
2019-04-22T16:49:37.358Z,20.70
2019-04-22T16:52:07.885Z,20.60
2019-04-22T16:54:36.947Z,20.40
2019-04-22T16:57:06.043Z,20.30
2019-04-22T16:59:35.162Z,20.30
2019-04-22T17:02:19.039Z,20.30
2019-04-22T17:05:02.085Z,20.30
2019-04-22T17:07:31.921Z,20.10
2019-04-22T17:10:01.935Z,20.10
2019-04-22T17:12:41.814Z,20.10
2019-04-22T17:15:07.281Z,20.00
2019-04-22T17:17:32.674Z,20.00
2019-04-22T17:20:02.943Z,19.90
2019-04-22T17:22:33.463Z,19.80
2019-04-22T17:25:02.882Z,19.80
2019-04-22T17:27:34.437Z,19.80
2019-04-22T17:30:02.489Z,19.70
2019-04-22T17:32:31.747Z,19.60
2019-04-22T17:35:02.065Z,19.50
2019-04-22T17:37:34.132Z,19.40
2019-04-22T17:40:17.944Z,19.40
2019-04-22T17:42:49.458Z,19.40
2019-04-22T17:45:28.478Z,19.30
2019-04-22T17:48:16.902Z,19.30
2019-04-22T17:50:57.826Z,19.10
2019-04-22T17:53:21.515Z,18.90
2019-04-22T17:55:50.627Z,18.80
2019-04-22T17:58:20.710Z,18.70
2019-04-22T18:00:50.462Z,18.60
2019-04-22T18:03:11.842Z,18.50
2019-04-22T18:05:37.331Z,18.40
2019-04-22T18:08:17.036Z,18.40
2019-04-22T18:10:49.103Z,18.30
2019-04-22T18:13:25.068Z,18.40
2019-04-22T18:15:48.846Z,18.30
2019-04-22T18:18:24.523Z,18.30
2019-04-22T18:20:48.921Z,18.30
2019-04-22T18:23:09.943Z,18.30
2019-04-22T18:25:53.751Z,18.30
2019-04-22T18:28:25.575Z,18.30
2019-04-22T18:30:50.126Z,18.20
2019-04-22T18:33:25.751Z,18.00
2019-04-22T18:35:57.295Z,17.90
2019-04-22T18:38:32.494Z,17.80
2019-04-22T18:40:54.470Z,17.80
2019-04-22T18:43:28.886Z,17.90
2019-04-22T18:46:05.351Z,17.70
2019-04-22T18:48:22.058Z,17.70
2019-04-22T18:51:04.859Z,17.60
2019-04-22T18:53:54.122Z,17.60
2019-04-22T18:56:25.467Z,17.50
2019-04-22T18:58:43.389Z,17.40
2019-04-22T19:01:05.921Z,17.40
2019-04-22T19:03:44.701Z,17.40
2019-04-22T19:06:34.080Z,17.50
2019-04-22T19:09:03.161Z,17.40
2019-04-22T19:11:27.171Z,17.30
2019-04-22T19:14:07.434Z,17.20
2019-04-22T19:19:20.478Z,17.10
2019-04-22T19:21:26.034Z,17.10
2019-04-22T19:24:03.119Z,17.10
2019-04-22T19:26:42.421Z,17.10
2019-04-22T19:28:59.964Z,17.10
2019-04-22T19:31:28.543Z,17.10
2019-04-22T19:34:06.267Z,17.00
2019-04-22T19:36:32.207Z,16.90
2019-04-22T19:38:59.203Z,16.80
2019-04-22T19:41:36.371Z,16.80
2019-04-22T19:44:08.156Z,16.80
2019-04-22T19:46:34.533Z,16.70
2019-04-22T19:49:10.648Z,16.50
2019-04-22T19:51:49.284Z,16.50
2019-04-22T19:54:07.683Z,16.50
2019-04-22T19:56:26.487Z,16.50
2019-04-22T19:59:03.635Z,16.60
2019-04-22T20:01:48.633Z,16.60
2019-04-22T20:04:28.332Z,16.50
2019-04-22T20:06:55.180Z,16.40
2019-04-22T20:09:30.134Z,16.50
2019-04-22T20:11:57.603Z,16.50
2019-04-22T20:14:28.098Z,16.40
2019-04-22T20:16:54.743Z,16.50
2019-04-22T20:19:39.836Z,16.50
2019-04-22T20:22:02.886Z,16.50
2019-04-22T20:24:16.768Z,16.40
2019-04-22T20:27:02.855Z,16.40
2019-04-22T20:29:37.619Z,16.40
2019-04-22T20:32:05.706Z,16.30
2019-04-22T20:34:38.010Z,16.30
2019-04-22T20:37:10.454Z,16.30
2019-04-22T20:39:39.506Z,16.20
2019-04-22T20:42:16.434Z,16.20
2019-04-22T20:44:39.708Z,16.20
2019-04-22T20:47:09.122Z,16.20
2019-04-22T20:49:57.235Z,16.20
2019-04-22T20:52:33.843Z,16.20
2019-04-22T20:55:13.118Z,16.10
2019-04-22T20:57:53.040Z,16.00
2019-04-22T21:00:21.660Z,16.00
2019-04-22T21:03:06.250Z,16.00
2019-04-22T21:05:40.309Z,16.00
2019-04-22T21:08:20.958Z,16.00
2019-04-22T21:10:44.809Z,15.90
2019-04-22T21:13:13.848Z,15.90
2019-04-22T21:15:55.398Z,15.80
2019-04-22T21:18:20.071Z,15.80
2019-04-22T21:20:59.250Z,15.80
2019-04-22T21:23:18.836Z,15.80
2019-04-22T21:25:54.292Z,15.70
2019-04-22T21:28:27.279Z,15.60
2019-04-22T21:30:52.048Z,15.60
2019-04-22T21:33:19.715Z,15.60
2019-04-22T21:36:22.034Z,15.60
2019-04-22T21:38:34.470Z,15.60
2019-04-22T21:40:59.935Z,15.50
2019-04-22T21:43:30.751Z,15.40
2019-04-22T21:46:04.878Z,15.40
2019-04-22T21:48:36.965Z,15.40
2019-04-22T21:51:04.898Z,15.40
2019-04-22T21:53:41.737Z,15.40
2019-04-22T21:59:12.456Z,15.40
2019-04-22T22:04:20.696Z,15.20
2019-04-22T22:06:50.090Z,15.10
2019-04-22T22:09:37.954Z,15.10
2019-04-22T22:11:59.378Z,15.00
2019-04-22T22:14:34.833Z,14.90
2019-04-22T22:16:56.114Z,15.00
2019-04-22T22:19:37.750Z,14.80
2019-04-22T22:22:25.027Z,14.80
2019-04-22T22:24:46.330Z,14.80
2019-04-22T22:27:18.773Z,14.70
2019-04-22T22:30:23.598Z,14.70
2019-04-22T22:32:26.068Z,14.80
2019-04-22T22:34:52.858Z,14.70
2019-04-22T22:37:12.251Z,14.60
2019-04-22T22:39:42.000Z,14.60
2019-04-22T22:42:30.243Z,14.60
2019-04-22T22:45:01.750Z,14.50
2019-04-22T22:47:45.594Z,14.40
2019-04-22T22:50:40.355Z,14.40
2019-04-22T22:55:41.025Z,14.30
2019-04-22T22:58:16.610Z,14.30
2019-04-22T23:00:44.072Z,14.20
2019-04-22T23:03:39.983Z,14.20
2019-04-22T23:05:50.434Z,14.20
2019-04-22T23:08:20.427Z,14.10
2019-04-22T23:10:58.295Z,14.00
2019-04-22T23:13:25.855Z,13.90
2019-04-22T23:15:46.116Z,13.90
2019-04-22T23:18:16.224Z,13.90
2019-04-22T23:20:47.882Z,13.90
2019-04-22T23:23:40.878Z,13.80
2019-04-22T23:26:14.056Z,13.80
2019-04-22T23:28:50.620Z,13.80
2019-04-22T23:31:21.151Z,13.70
2019-04-22T23:34:09.206Z,13.70
2019-04-22T23:36:55.901Z,13.80
2019-04-22T23:39:37.329Z,13.70
2019-04-22T23:42:09.759Z,13.70
2019-04-22T23:44:38.051Z,13.70
2019-04-22T23:47:12.153Z,13.60
2019-04-22T23:49:41.973Z,13.40
2019-04-22T23:52:22.685Z,13.40
2019-04-22T23:54:55.463Z,13.40
2019-04-22T23:57:29.772Z,13.40
